Time;durP1;ratioP1;P1;durP2;ratioP2;P2;SDS_P1;SDS_P2;PMS_P1;PMS_P2;Temp;Humidity;BMP_temperature;BMP_pressure;BME280_temperature;BME280_humidity;BME280_pressure;Samples;Min_cycle;Max_cycle;Signal;HPM_P1;HPM_P2
2022/09/18 00:01:17;;;;;;;5.93;2.78;;;16.60;65.10;;;;;;5107234;28;20091;-70
2022/09/18 00:03:45;;;;;;;5.72;3.40;;;16.60;65.20;;;;;;5106435;28;20034;-70
2022/09/18 00:06:20;;;;;;;12.23;3.55;;;16.60;65.30;;;;;;5104989;28;20030;-70
2022/09/18 02:14:42;;;;;;;6.95;1.48;;;16.00;69.60;;;;;;5106743;27;20608;-70
2022/09/18 02:17:16;;;;;;;5.15;1.58;;;16.30;69.40;;;;;;5101769;28;20024;-70
2022/09/18 02:19:50;;;;;;;1.98;1.00;;;16.30;68.90;;;;;;5102152;28;20023;-70
2022/09/18 02:22:20;;;;;;;4.32;2.33;;;16.40;68.70;;;;;;5101032;28;20490;-70
2022/09/18 02:24:50;;;;;;;9.40;3.28;;;16.40;68.40;;;;;;5104824;28;20028;-70
2022/09/18 02:27:18;;;;;;;3.22;1.42;;;16.40;68.50;;;;;;5106666;28;20011;-70
2022/09/18 02:29:46;;;;;;;2.40;1.27;;;16.40;68.30;;;;;;5098987;28;20023;-70
2022/09/18 02:32:13;;;;;;;2.88;1.23;;;16.40;68.20;;;;;;5104747;28;20023;-71
2022/09/18 02:34:39;;;;;;;3.63;1.10;;;16.40;68.00;;;;;;5107051;28;20019;-71
2022/09/18 02:37:42;;;;;;;2.35;1.00;;;16.40;68.00;;;;;;5106929;28;20024;-70
2022/09/18 02:40:27;;;;;;;4.38;1.15;;;16.40;67.80;;;;;;5103135;28;20038;-70
2022/09/18 02:43:21;;;;;;;3.83;1.00;;;16.40;67.80;;;;;;5103011;28;20036;-70
2022/09/18 02:46:02;;;;;;;9.35;1.70;;;16.40;67.60;;;;;;5099657;28;21145;-70
2022/09/18 02:48:57;;;;;;;5.15;1.23;;;16.40;67.60;;;;;;5103229;28;20059;-70
2022/09/18 02:51:49;;;;;;;3.17;2.25;;;16.40;67.60;;;;;;5102820;28;20016;-70
2022/09/18 02:54:40;;;;;;;7.40;1.63;;;16.40;68.10;;;;;;5104998;28;20031;-71
2022/09/18 02:57:37;;;;;;;1.92;0.90;;;16.40;68.40;;;;;;5105802;28;20354;-70
2022/09/18 03:00:06;;;;;;;3.20;1.33;;;16.40;68.30;;;;;;5100224;28;20118;-71
2022/09/18 03:02:33;;;;;;;1.95;0.93;;;16.40;68.10;;;;;;5103022;27;20036;-70
2022/09/18 03:04:59;;;;;;;4.50;1.55;;;16.40;68.10;;;;;;5103899;28;20024;-70
2022/09/18 03:07:25;;;;;;;4.30;0.85;;;16.40;68.00;;;;;;5101967;28;20099;-70
2022/09/18 03:09:52;;;;;;;1.60;1.08;;;16.30;67.90;;;;;;5101082;28;20020;-70
2022/09/18 03:12:18;;;;;;;2.90;0.93;;;16.30;68.00;;;;;;5103128;28;20377;-70
2022/09/18 03:14:45;;;;;;;15.52;1.38;;;16.30;67.90;;;;;;5091001;28;20046;-70
2022/09/18 03:17:11;;;;;;;3.10;1.33;;;16.30;67.90;;;;;;5089707;28;20052;-70
2022/09/18 03:19:38;;;;;;;1.77;0.82;;;16.30;68.00;;;;;;5091584;28;20031;-71
2022/09/18 03:22:04;;;;;;;2.25;1.13;;;16.30;68.00;;;;;;5093123;28;20032;-70
2022/09/18 03:24:31;;;;;;;2.83;1.60;;;16.30;68.00;;;;;;5090597;28;20026;-70
2022/09/18 03:26:58;;;;;;;3.67;1.65;;;16.20;68.00;;;;;;5091381;28;20020;-70
2022/09/18 03:29:24;;;;;;;3.67;1.67;;;16.20;67.90;;;;;;5087404;28;20533;-70
2022/09/18 03:31:51;;;;;;;4.93;1.30;;;16.20;68.00;;;;;;5092091;28;20024;-70
2022/09/18 03:34:18;;;;;;;9.07;2.92;;;16.20;68.10;;;;;;5089644;28;20023;-70
2022/09/18 03:36:45;;;;;;;12.05;3.17;;;16.20;68.10;;;;;;5089312;28;20032;-70
2022/09/18 03:39:13;;;;;;;7.53;3.90;;;16.20;68.10;;;;;;5091395;28;20021;-70
2022/09/18 03:41:39;;;;;;;17.42;5.57;;;16.20;67.80;;;;;;5094155;28;20013;-69
2022/09/18 03:44:05;;;;;;;14.73;4.70;;;16.10;67.90;;;;;;5090553;28;20125;-70
2022/09/18 03:46:32;;;;;;;13.25;4.60;;;16.10;68.70;;;;;;5089612;28;20035;-69
2022/09/18 03:48:58;;;;;;;15.80;4.28;;;16.10;69.60;;;;;;5092022;28;20167;-70
2022/09/18 03:51:25;;;;;;;8.70;3.45;;;16.10;69.80;;;;;;5087169;28;20021;-70
2022/09/18 03:53:51;;;;;;;6.57;2.45;;;16.10;69.00;;;;;;5086380;28;20043;-70
2022/09/18 03:56:18;;;;;;;7.07;3.25;;;16.10;68.20;;;;;;5092976;28;20107;-70
2022/09/18 03:58:44;;;;;;;8.27;2.67;;;16.10;67.80;;;;;;5088418;28;20074;-70
2022/09/18 04:01:14;;;;;;;10.10;2.78;;;16.00;67.40;;;;;;5086598;28;20024;-70
2022/09/18 04:03:40;;;;;;;11.55;3.47;;;16.00;67.30;;;;;;5088425;28;20095;-69
2022/09/18 04:06:07;;;;;;;6.85;1.83;;;16.00;67.20;;;;;;5086860;28;20044;-71
2022/09/18 04:08:34;;;;;;;7.85;1.95;;;15.90;67.20;;;;;;5087284;28;20078;-70
2022/09/18 04:11:03;;;;;;;2.50;1.17;;;15.90;67.20;;;;;;5090880;28;20061;-70
2022/09/18 04:13:31;;;;;;;2.28;1.00;;;15.90;67.20;;;;;;5087244;28;20080;-70
2022/09/18 04:15:57;;;;;;;4.93;1.65;;;15.80;67.10;;;;;;5088241;28;20028;-70
2022/09/18 04:18:27;;;;;;;4.32;1.10;;;15.80;67.00;;;;;;5091517;28;20023;-71
2022/09/18 04:20:53;;;;;;;2.80;1.02;;;15.80;67.00;;;;;;5088205;28;20105;-70
2022/09/18 04:23:23;;;;;;;4.57;1.17;;;15.80;66.90;;;;;;5089571;28;20066;-70
2022/09/18 04:25:49;;;;;;;7.38;2.65;;;15.70;66.80;;;;;;5086672;28;20032;-70
2022/09/18 04:28:16;;;;;;;1.50;1.35;;;15.70;66.70;;;;;;5088657;28;20024;-71
2022/09/18 04:30:42;;;;;;;4.93;1.98;;;15.70;66.70;;;;;;5090807;28;20035;-70
2022/09/18 04:33:09;;;;;;;2.25;1.25;;;15.70;66.50;;;;;;5086276;28;20017;-71
2022/09/18 04:35:35;;;;;;;3.72;1.55;;;15.70;66.50;;;;;;5088297;28;20493;-71
2022/09/18 04:38:02;;;;;;;6.45;2.55;;;15.60;66.40;;;;;;5087040;28;20064;-72
2022/09/18 04:40:28;;;;;;;3.65;1.13;;;15.60;66.40;;;;;;5089812;28;20016;-71
2022/09/18 04:42:54;;;;;;;5.32;1.70;;;15.60;66.40;;;;;;5088494;28;20085;-70
2022/09/18 04:45:21;;;;;;;4.47;1.48;;;15.60;66.30;;;;;;5088728;28;20022;-69
2022/09/18 04:47:48;;;;;;;6.20;2.08;;;15.50;66.20;;;;;;5087159;28;20012;-70
2022/09/18 04:50:15;;;;;;;6.80;1.83;;;15.50;66.20;;;;;;5089298;28;20024;-70
2022/09/18 04:52:42;;;;;;;11.18;4.05;;;15.50;66.10;;;;;;5087652;28;20499;-72
2022/09/18 04:55:08;;;;;;;31.60;18.58;;;15.50;66.70;;;;;;5086627;28;20088;-71
2022/09/18 04:57:35;;;;;;;29.98;21.98;;;15.50;67.80;;;;;;5084277;28;20103;-71
2022/09/18 05:00:03;;;;;;;23.50;14.63;;;15.50;66.90;;;;;;5089485;28;20380;-71
2022/09/18 05:02:29;;;;;;;11.73;8.40;;;15.50;66.50;;;;;;5085925;28;20043;-71
2022/09/18 05:04:56;;;;;;;10.55;5.35;;;15.50;66.20;;;;;;5087964;28;20023;-72
2022/09/18 05:07:22;;;;;;;9.35;4.35;;;15.50;66.60;;;;;;5088069;27;20016;-70
2022/09/18 05:09:49;;;;;;;7.03;3.80;;;15.50;67.20;;;;;;5084767;28;20169;-71
2022/09/18 05:12:16;;;;;;;32.33;5.63;;;15.50;66.90;;;;;;5086322;28;20378;-71
2022/09/18 05:14:42;;;;;;;11.25;4.97;;;15.40;66.30;;;;;;5087598;28;20031;-71
2022/09/18 05:17:09;;;;;;;7.57;4.18;;;15.40;66.40;;;;;;5088440;28;20035;-71
2022/09/18 05:19:35;;;;;;;9.05;4.63;;;15.40;66.50;;;;;;5088022;28;20020;-71
2022/09/18 05:22:02;;;;;;;7.03;4.82;;;15.40;66.60;;;;;;5088520;28;20425;-70
2022/09/18 05:24:28;;;;;;;8.02;4.80;;;15.40;66.50;;;;;;5089518;28;20028;-70
2022/09/18 05:26:55;;;;;;;6.53;4.25;;;15.40;66.70;;;;;;5087546;28;20077;-70
2022/09/18 05:29:21;;;;;;;11.90;4.57;;;15.40;66.80;;;;;;5089154;28;20502;-70
2022/09/18 05:31:48;;;;;;;8.68;5.60;;;15.40;67.30;;;;;;5088801;28;20023;-70
2022/09/18 05:34:14;;;;;;;8.70;4.28;;;15.40;66.70;;;;;;5087528;28;20514;-70
2022/09/18 05:36:41;;;;;;;10.10;4.68;;;15.40;66.80;;;;;;5085896;28;20111;-71
2022/09/18 05:39:07;;;;;;;9.23;4.78;;;15.30;66.90;;;;;;5086637;28;20513;-69
2022/09/18 05:41:34;;;;;;;10.88;4.57;;;15.40;67.00;;;;;;5088101;28;20382;-70
2022/09/18 05:44:01;;;;;;;8.95;4.65;;;15.40;67.00;;;;;;5087073;28;20024;-70
2022/09/18 05:46:27;;;;;;;34.33;10.63;;;15.40;67.10;;;;;;5085731;28;20024;-70
2022/09/18 05:48:54;;;;;;;51.97;16.90;;;15.40;67.50;;;;;;5086789;28;20065;-70
2022/09/18 05:51:21;;;;;;;33.78;12.25;;;15.40;67.70;;;;;;5084623;28;20025;-70
2022/09/18 05:53:48;;;;;;;17.50;7.78;;;15.50;67.80;;;;;;5087694;28;20503;-69
2022/09/18 05:56:15;;;;;;;18.58;6.20;;;15.50;67.90;;;;;;5085973;28;20459;-71
2022/09/18 05:58:42;;;;;;;13.10;5.18;;;15.50;68.10;;;;;;5087346;28;20056;-69
2022/09/18 06:01:09;;;;;;;36.75;26.45;;;15.50;68.30;;;;;;5079588;28;20016;-71
2022/09/18 06:03:36;;;;;;;38.10;20.40;;;15.60;68.70;;;;;;5087379;28;20032;-70
2022/09/18 06:06:02;;;;;;;23.23;12.73;;;15.50;69.20;;;;;;5086851;28;20020;-68
2022/09/18 06:08:29;;;;;;;15.07;9.90;;;15.60;69.30;;;;;;5091287;28;20009;-70
2022/09/18 06:10:59;;;;;;;11.90;6.00;;;15.60;69.50;;;;;;5090934;28;20020;-72
2022/09/18 06:13:25;;;;;;;10.15;4.53;;;15.60;69.60;;;;;;5084629;28;20036;-71
2022/09/18 06:15:52;;;;;;;10.30;4.55;;;15.60;69.90;;;;;;5088718;28;20024;-69
2022/09/18 06:18:18;;;;;;;17.63;5.38;;;15.70;70.50;;;;;;5086255;28;20142;-71
2022/09/18 06:20:57;;;;;;;5.00;3.15;;;15.70;71.30;;;;;;5088146;28;20467;-74
2022/09/18 06:23:25;;;;;;;8.10;3.90;;;15.70;71.70;;;;;;5084819;28;20037;-79
2022/09/18 06:26:03;;;;;;;19.35;3.63;;;15.70;71.50;;;;;;5087817;28;20012;-69
2022/09/18 06:28:31;;;;;;;13.02;5.22;;;15.80;71.20;;;;;;5086097;28;20077;-73
2022/09/18 06:30:58;;;;;;;16.63;10.38;;;15.80;70.90;;;;;;5087014;28;20032;-71
2022/09/18 06:33:28;;;;;;;22.70;13.05;;;15.90;70.90;;;;;;5087893;28;20537;-70
2022/09/18 06:35:54;;;;;;;14.27;7.63;;;15.90;70.70;;;;;;5084353;28;20032;-70
2022/09/18 06:38:21;;;;;;;16.17;6.25;;;15.90;70.60;;;;;;5088116;28;20401;-71
2022/09/18 06:40:52;;;;;;;8.10;4.05;;;15.90;71.00;;;;;;5087856;28;20055;-70
2022/09/18 06:43:19;;;;;;;7.07;3.33;;;16.00;71.30;;;;;;5085151;28;20111;-74
2022/09/18 06:45:56;;;;;;;9.57;3.40;;;16.00;71.30;;;;;;5082687;28;20081;-69
2022/09/18 06:48:23;;;;;;;6.78;3.13;;;16.00;71.20;;;;;;5085681;28;20119;-72
2022/09/18 06:50:55;;;;;;;11.15;2.65;;;16.00;71.00;;;;;;5087197;28;20465;-69
2022/09/18 06:53:23;;;;;;;174.02;132.95;;;16.10;70.70;;;;;;5087926;28;20032;-68
2022/09/18 06:55:49;;;;;;;77.88;58.72;;;16.10;70.40;;;;;;5090964;28;20020;-68
2022/09/18 06:58:17;;;;;;;52.80;38.75;;;16.20;70.00;;;;;;5082861;28;20016;-69
2022/09/18 07:00:44;;;;;;;45.72;30.75;;;16.20;69.90;;;;;;5089800;28;20495;-68
2022/09/18 07:03:12;;;;;;;18.90;10.60;;;16.20;68.30;;;;;;5087475;28;20036;-68
2022/09/18 07:05:41;;;;;;;8.82;5.45;;;16.30;66.80;;;;;;5087208;28;20432;-68
2022/09/18 07:08:09;;;;;;;15.75;5.80;;;16.30;66.60;;;;;;5080711;28;20024;-69
2022/09/18 07:10:37;;;;;;;6.28;2.83;;;16.30;65.90;;;;;;5092267;28;20020;-69
2022/09/18 07:13:04;;;;;;;11.30;2.20;;;16.40;65.70;;;;;;5084878;28;20062;-73
2022/09/18 07:15:35;;;;;;;1.33;1.13;;;16.40;65.60;;;;;;5088697;28;20159;-70
2022/09/18 07:18:04;;;;;;;3.13;1.25;;;16.40;65.40;;;;;;5089434;28;20055;-68
2022/09/18 07:20:31;;;;;;;4.57;2.08;;;16.50;64.60;;;;;;5089184;28;20137;-68
2022/09/18 07:23:01;;;;;;;5.50;2.35;;;16.50;64.30;;;;;;5088496;28;20120;-73
2022/09/18 07:25:31;;;;;;;8.80;3.65;;;16.50;64.20;;;;;;5085673;28;20539;-74
2022/09/18 07:28:07;;;;;;;8.40;3.15;;;16.60;64.10;;;;;;5086826;28;20459;-74
2022/09/18 07:30:38;;;;;;;18.13;4.18;;;16.60;64.20;;;;;;5089665;28;20031;-80
2022/09/18 07:33:06;;;;;;;7.18;3.10;;;16.60;64.50;;;;;;5089268;28;20031;-81
2022/09/18 07:36:12;;;;;;;9.30;1.73;;;16.70;64.50;;;;;;5090561;28;20048;-82
2022/09/18 07:38:40;;;;;;;6.10;2.40;;;16.70;64.60;;;;;;5091702;28;20035;-76
2022/09/18 07:41:06;;;;;;;9.35;1.48;;;16.80;64.30;;;;;;5086566;28;20063;-71
2022/09/18 07:44:12;;;;;;;6.85;1.73;;;16.80;64.20;;;;;;5085805;28;20040;-74
2022/09/18 07:46:39;;;;;;;4.75;1.80;;;16.80;64.10;;;;;;5085955;28;20020;-73
2022/09/18 07:49:06;;;;;;;2.05;1.42;;;16.90;64.10;;;;;;5086781;28;20307;-72
2022/09/18 07:51:32;;;;;;;1.48;1.00;;;16.90;64.00;;;;;;5088260;28;20028;-74
2022/09/18 07:53:59;;;;;;;3.53;1.25;;;17.00;64.30;;;;;;5088230;28;20027;-74
2022/09/18 07:56:25;;;;;;;2.80;1.25;;;17.00;64.60;;;;;;5087869;28;20016;-74
2022/09/18 07:58:52;;;;;;;7.25;1.50;;;17.10;64.50;;;;;;5088693;28;20020;-75
2022/09/18 08:01:18;;;;;;;1.58;1.05;;;17.10;64.50;;;;;;5089707;28;20024;-76
2022/09/18 10:16:23;;;;;;;5.18;1.50;;;17.80;59.50;;;;;;5033889;28;21022;-76
2022/09/18 10:18:49;;;;;;;6.97;1.42;;;18.10;60.70;;;;;;5023505;28;20014;-75
2022/09/18 10:21:45;;;;;;;8.18;1.17;;;18.20;60.20;;;;;;5023733;28;20045;-76
2022/09/18 10:24:51;;;;;;;;;;;;;;;;;;;;;
2022/09/18 10:27:35;;;;;;;1.17;0.73;;;18.40;58.60;;;;;;5022226;28;20041;-74
2022/09/18 10:30:11;;;;;;;1.27;0.30;;;18.60;59.20;;;;;;5018847;28;20068;-76
2022/09/18 10:33:28;;;;;;;6.80;0.57;;;18.60;59.30;;;;;;5023655;28;20060;-76
2022/09/18 10:36:23;;;;;;;5.60;0.68;;;18.70;59.10;;;;;;4975973;28;20125;-77
2022/09/18 10:38:50;;;;;;;2.03;1.00;;;18.70;58.80;;;;;;4997196;28;20034;-75
2022/09/18 10:41:27;;;;;;;9.80;0.90;;;18.80;59.00;;;;;;5021142;28;20037;-76
2022/09/18 10:44:01;;;;;;;0.98;0.50;;;18.80;59.20;;;;;;5037681;28;20041;-74
2022/09/18 10:46:30;;;;;;;5.80;2.03;;;18.90;59.70;;;;;;5023273;28;20034;-75
2022/09/18 10:49:01;;;;;;;5.93;1.50;;;18.90;60.10;;;;;;5024424;28;20029;-80
2022/09/18 10:51:28;;;;;;;1.80;0.60;;;19.10;60.20;;;;;;5022569;28;20102;-76
2022/09/18 10:54:07;;;;;;;7.45;0.60;;;19.20;59.50;;;;;;5023411;28;20040;-73
2022/09/18 10:56:34;;;;;;;6.60;0.60;;;19.30;58.60;;;;;;5020801;28;20117;-77
2022/09/18 10:59:31;;;;;;;5.30;0.75;;;19.30;58.20;;;;;;5020704;28;20045;-74
2022/09/18 11:02:03;;;;;;;5.13;1.65;;;19.30;57.60;;;;;;5022713;28;20021;-74
2022/09/18 11:04:31;;;;;;;6.47;2.30;;;19.30;57.40;;;;;;5025789;28;20060;-77
2022/09/18 11:07:01;;;;;;;2.55;1.92;;;19.40;57.10;;;;;;5023497;28;20032;-75
2022/09/18 11:09:39;;;;;;;3.47;1.13;;;19.30;57.10;;;;;;5022415;28;20030;-75
2022/09/18 11:12:20;;;;;;;3.85;1.80;;;19.40;57.20;;;;;;5023274;28;20045;-76
2022/09/18 11:15:03;;;;;;;15.88;8.80;;;19.40;56.70;;;;;;5030827;28;20418;-77
2022/09/18 11:17:33;;;;;;;12.13;6.47;;;19.50;56.80;;;;;;5025488;28;20103;-72
2022/09/18 11:20:02;;;;;;;6.07;3.10;;;19.50;57.30;;;;;;5031518;28;20049;-76
2022/09/18 11:22:43;;;;;;;3.55;2.13;;;19.60;56.90;;;;;;5030991;28;20043;-75
2022/09/18 11:25:18;;;;;;;2.83;1.70;;;19.60;57.00;;;;;;5042448;28;20041;-74
2022/09/18 11:27:49;;;;;;;4.03;1.13;;;19.70;57.10;;;;;;5029629;28;20049;-74
2022/09/18 11:30:27;;;;;;;1.45;0.82;;;19.70;57.60;;;;;;5026073;28;20087;-71
2022/09/18 11:32:59;;;;;;;1.58;0.63;;;19.90;57.50;;;;;;5026420;28;20053;-76
2022/09/18 11:35:29;;;;;;;2.58;0.80;;;19.90;57.80;;;;;;5040792;28;20056;-74
2022/09/18 11:37:59;;;;;;;1.60;0.60;;;20.00;57.80;;;;;;5038216;28;20205;-78
2022/09/18 11:40:43;;;;;;;0.95;0.50;;;20.00;57.90;;;;;;5025198;28;20030;-76
2022/09/18 11:43:40;;;;;;;1.20;0.88;;;20.10;57.90;;;;;;5024680;28;20483;-75
2022/09/18 11:46:19;;;;;;;2.78;0.93;;;20.20;57.90;;;;;;5041858;28;20033;-75
2022/09/18 11:48:51;;;;;;;3.20;0.57;;;20.30;58.20;;;;;;5028681;28;20056;-75
2022/09/18 11:51:49;;;;;;;4.63;0.60;;;20.30;58.40;;;;;;5023628;28;20025;-75
2022/09/18 11:54:41;;;;;;;6.82;0.50;;;20.30;57.60;;;;;;5027809;28;20357;-73
2022/09/18 11:57:32;;;;;;;5.03;0.52;;;20.30;57.10;;;;;;5024343;28;20041;-72
2022/09/18 12:00:16;;;;;;;9.57;3.78;;;20.30;57.00;;;;;;5041533;28;20104;-72
2022/09/18 12:02:52;;;;;;;7.88;2.63;;;20.30;56.80;;;;;;5024395;28;20029;-73
2022/09/18 12:05:50;;;;;;;3.78;1.27;;;20.30;56.20;;;;;;5025022;28;20038;-76
2022/09/18 12:08:52;;;;;;;1.33;0.98;;;20.30;55.70;;;;;;5025794;28;20506;-73
2022/09/18 12:11:42;;;;;;;8.30;5.18;;;20.40;55.00;;;;;;5026668;28;20132;-73
2022/09/18 12:14:39;;;;;;;6.68;3.47;;;20.40;54.30;;;;;;5023440;28;20124;-75
2022/09/18 12:17:21;;;;;;;8.98;3.92;;;20.40;53.50;;;;;;5023446;28;20432;-73
2022/09/18 12:20:13;;;;;;;6.35;1.95;;;20.50;53.50;;;;;;5028846;28;20590;-73
2022/09/18 12:22:45;;;;;;;2.47;1.52;;;20.50;53.30;;;;;;5025951;28;20018;-69
2022/09/18 12:25:16;;;;;;;4.95;1.05;;;20.50;52.60;;;;;;5025931;28;20112;-71
2022/09/18 12:27:46;;;;;;;3.35;1.13;;;20.60;51.80;;;;;;5027370;28;20034;-73
2022/09/18 12:30:21;;;;;;;7.07;1.60;;;20.60;52.00;;;;;;5028754;28;20029;-72
2022/09/18 12:33:23;;;;;;;12.15;2.42;;;20.60;52.20;;;;;;5029528;28;20443;-72
2022/09/18 12:35:52;;;;;;;5.25;3.53;;;20.70;53.40;;;;;;5030867;28;20029;-72
2022/09/18 12:38:46;;;;;;;19.50;9.55;;;20.70;54.30;;;;;;5028021;28;20033;-71
2022/09/18 12:42:04;;;;;;;19.65;7.50;;;20.60;54.70;;;;;;5028296;28;20063;-76
2022/09/18 12:45:00;;;;;;;12.25;5.20;;;20.60;55.40;;;;;;5026996;28;20140;-71
2022/09/18 12:48:00;;;;;;;10.00;3.88;;;20.60;55.50;;;;;;5029369;28;20136;-72
2022/09/18 12:51:06;;;;;;;;;;;;;;;;;;;;;
2022/09/18 12:53:56;;;;;;;4.00;2.22;;;20.70;55.50;;;;;;5026760;28;20053;-73
2022/09/18 12:56:47;;;;;;;8.95;2.63;;;20.60;54.70;;;;;;5042409;28;20476;-73
2022/09/18 12:59:53;;;;;;;4.72;1.50;;;20.60;54.40;;;;;;5027322;28;20069;-71
2022/09/18 13:02:58;;;;;;;7.90;1.15;;;20.60;54.30;;;;;;5049966;28;20046;-72
2022/09/18 13:06:22;;;;;;;7.28;1.17;;;20.70;54.40;;;;;;5029090;28;20025;-71
2022/09/18 13:09:13;;;;;;;4.97;0.93;;;20.60;53.60;;;;;;5038705;28;20064;-71
2022/09/18 13:12:19;;;;;;;6.47;1.92;;;20.60;53.50;;;;;;5026353;28;20104;-72
2022/09/18 13:15:29;;;;;;;3.85;1.00;;;20.60;52.40;;;;;;4968630;28;20066;-70
2022/09/18 13:25:38;;;;;;;2.75;0.70;;;20.60;51.10;;;;;;5020617;28;20108;-74
2022/09/18 13:35:24;;;;;;;4.53;0.63;;;20.50;50.60;;;;;;4812236;29;20041;-74
2022/09/18 13:38:16;;;;;;;6.03;0.90;;;20.50;50.80;;;;;;4890627;29;20043;-74
2022/09/18 13:40:54;;;;;;;3.53;1.08;;;20.50;51.30;;;;;;4957590;28;20090;-76
2022/09/18 13:43:38;;;;;;;4.05;0.68;;;20.60;51.70;;;;;;4989115;28;20034;-75
2022/09/18 13:46:06;;;;;;;2.55;0.80;;;20.60;52.00;;;;;;5022514;28;20084;-75
2022/09/18 13:48:47;;;;;;;3.40;0.50;;;20.50;51.90;;;;;;5001466;28;20377;-80
2022/09/18 13:51:31;;;;;;;9.27;2.33;;;20.50;52.40;;;;;;5003428;28;20084;-75
2022/09/18 13:54:20;;;;;;;2.47;0.80;;;20.50;53.20;;;;;;5005634;28;20125;-76
2022/09/18 13:57:09;;;;;;;5.88;0.98;;;20.50;54.10;;;;;;5003717;28;20108;-82
2022/09/18 13:59:57;;;;;;;5.85;0.88;;;20.50;55.10;;;;;;5020633;28;20050;-75
2022/09/18 14:03:35;;;;;;;;;;;;;;;;;;;;;
2022/09/18 14:14:14;;;;;;;;;;;;;;;;;;;;;
2022/09/18 14:17:44;;;;;;;4.65;0.98;;;20.40;57.10;;;;;;4952138;28;20049;-75
2022/09/18 14:20:21;;;;;;;4.40;1.00;;;20.40;57.10;;;;;;4892264;29;20249;-76
2022/09/18 14:22:53;;;;;;;3.00;1.33;;;20.30;57.60;;;;;;4986888;28;20034;-78
2022/09/18 14:25:48;;;;;;;2.05;1.23;;;20.30;57.60;;;;;;5007688;28;20033;-76
2022/09/18 14:28:45;;;;;;;4.85;1.95;;;20.30;58.00;;;;;;5035962;28;20557;-76
2022/09/18 14:31:46;;;;;;;2.15;0.88;;;20.30;58.10;;;;;;5019210;28;20041;-78
2022/09/18 14:34:40;;;;;;;2.95;1.95;;;20.30;58.20;;;;;;5019817;28;20037;-77
2022/09/18 14:37:38;;;;;;;0.93;0.60;;;20.30;58.30;;;;;;5019029;28;20515;-78
2022/09/18 14:40:34;;;;;;;11.15;0.90;;;20.20;57.80;;;;;;5025148;28;20033;-82
2022/09/18 14:43:16;;;;;;;6.07;2.30;;;20.20;57.40;;;;;;5024520;28;20491;-78
2022/09/18 14:45:43;;;;;;;17.98;8.65;;;20.10;57.20;;;;;;5024681;28;20376;-76
2022/09/18 14:48:45;;;;;;;9.93;4.40;;;20.10;57.30;;;;;;5038852;28;20028;-74
2022/09/18 14:51:44;;;;;;;7.68;2.35;;;20.00;56.70;;;;;;4974717;28;20575;-75
2022/09/18 14:54:21;;;;;;;10.07;2.58;;;20.00;56.40;;;;;;4996013;28;20037;-75
2022/09/18 14:57:45;;;;;;;5.50;1.52;;;19.90;56.40;;;;;;5028430;28;20026;-74
2022/09/18 15:00:38;;;;;;;5.43;1.30;;;20.00;56.00;;;;;;4950856;28;20571;-74
2022/09/18 15:03:49;;;;;;;1.25;0.70;;;20.00;55.10;;;;;;4991020;28;20510;-75
2022/09/18 15:06:36;;;;;;;3.13;1.35;;;20.00;54.90;;;;;;4967141;28;20117;-74
2022/09/18 15:09:05;;;;;;;3.42;1.08;;;19.90;54.90;;;;;;4964980;28;20187;-76
2022/09/18 15:11:43;;;;;;;3.58;1.25;;;19.90;55.50;;;;;;4939029;28;20035;-73
2022/09/18 15:14:57;;;;;;;3.88;0.95;;;19.90;56.00;;;;;;4966007;28;20059;-75
2022/09/18 15:17:34;;;;;;;3.45;1.10;;;19.80;56.10;;;;;;4971103;28;20124;-76
2022/09/18 15:20:18;;;;;;;2.70;1.25;;;19.80;56.40;;;;;;5029752;28;20022;-75
2022/09/18 15:22:44;;;;;;;2.30;0.93;;;19.70;56.10;;;;;;5043656;28;20083;-75
2022/09/18 15:25:24;;;;;;;2.42;1.02;;;19.70;56.10;;;;;;5027754;28;20030;-75
2022/09/18 15:28:02;;;;;;;9.05;1.15;;;19.60;56.30;;;;;;5022259;28;20111;-77
2022/09/18 15:30:28;;;;;;;4.22;0.75;;;19.60;56.60;;;;;;5027447;28;20071;-74
2022/09/18 15:33:30;;;;;;;;;;;;;;;;;;;;;
2022/09/18 15:37:05;;;;;;;3.53;0.50;;;19.60;56.30;;;;;;4985473;28;20048;-76
2022/09/18 15:39:37;;;;;;;2.53;0.90;;;19.50;55.90;;;;;;4943051;28;20177;-76
2022/09/18 15:42:31;;;;;;;3.25;1.20;;;19.50;56.30;;;;;;5025577;28;20127;-75
2022/09/18 15:45:03;;;;;;;4.25;0.73;;;19.50;56.70;;;;;;5026312;28;20491;-74
2022/09/18 15:47:43;;;;;;;3.33;1.13;;;19.50;57.10;;;;;;5024284;28;20628;-72
2022/09/18 15:50:16;;;;;;;3.88;0.98;;;19.40;57.30;;;;;;5028401;28;20480;-73
2022/09/18 15:53:01;;;;;;;1.52;0.80;;;19.40;57.70;;;;;;5024101;28;20560;-75
2022/09/18 15:55:31;;;;;;;7.97;0.90;;;19.40;57.90;;;;;;5027519;28;20042;-75
2022/09/18 15:58:41;;;;;;;5.55;0.85;;;19.40;57.70;;;;;;5026227;28;20095;-75
2022/09/18 16:01:45;;;;;;;3.38;0.82;;;19.40;57.70;;;;;;5024612;28;20084;-77
2022/09/18 20:19:25;;;;;;;2.63;0.87;;;17.40;64.90;;;;;;6098991;22;5183061;-70
2022/09/18 20:21:52;;;;;;;4.45;1.30;;;17.60;65.50;;;;;;6280183;22;20236;-69
2022/09/18 20:24:19;;;;;;;1.90;1.08;;;17.60;65.50;;;;;;6280635;22;20334;-74
2022/09/18 20:26:46;;;;;;;3.03;1.10;;;17.60;65.40;;;;;;6281072;22;20003;-72
2022/09/18 20:29:13;;;;;;;1.88;0.80;;;17.70;65.40;;;;;;6279713;22;20330;-72
2022/09/18 20:31:40;;;;;;;2.70;1.15;;;17.70;65.50;;;;;;6281330;22;20026;-69
2022/09/18 20:34:09;;;;;;;5.03;1.15;;;17.70;65.70;;;;;;6279709;22;19996;-73
2022/09/18 20:36:36;;;;;;;2.78;1.30;;;17.70;65.90;;;;;;6281199;22;19995;-70
2022/09/18 20:39:04;;;;;;;1.58;0.90;;;17.70;65.90;;;;;;6279874;22;20430;-68
2022/09/18 20:41:30;;;;;;;4.20;1.30;;;17.70;66.10;;;;;;6279834;22;20387;-66
2022/09/18 20:44:07;;;;;;;3.42;1.50;;;17.70;66.30;;;;;;6280672;22;20031;-73
2022/09/18 20:46:34;;;;;;;2.03;1.02;;;17.70;66.40;;;;;;6279914;22;20049;-68
2022/09/18 20:49:01;;;;;;;9.90;1.40;;;17.70;66.80;;;;;;6280619;22;20398;-67
2022/09/18 20:51:35;;;;;;;6.28;1.33;;;17.80;67.30;;;;;;6279319;22;20334;-67
2022/09/18 20:54:05;;;;;;;5.72;1.27;;;17.80;67.80;;;;;;6280120;22;20368;-70
2022/09/18 20:56:34;;;;;;;1.50;0.93;;;17.80;67.80;;;;;;6280941;22;19996;-72
2022/09/18 20:59:06;;;;;;;2.45;1.02;;;17.70;67.80;;;;;;6279349;22;20185;-66
2022/09/18 21:01:40;;;;;;;4.00;1.25;;;17.80;67.90;;;;;;6280032;22;20457;-68
2022/09/18 21:04:10;;;;;;;2.23;0.77;;;17.80;67.80;;;;;;6279209;22;20078;-72
2022/09/18 21:06:37;;;;;;;3.22;0.70;;;17.70;67.80;;;;;;6279082;22;20003;-70
2022/09/18 21:09:06;;;;;;;1.55;0.77;;;17.70;67.90;;;;;;6279476;22;20023;-69
2022/09/18 21:11:37;;;;;;;4.00;0.80;;;17.70;67.80;;;;;;6280384;22;20083;-72
2022/09/18 21:14:05;;;;;;;1.30;0.98;;;17.70;67.90;;;;;;6281309;22;20003;-69
2022/09/18 21:16:35;;;;;;;8.60;1.48;;;17.70;67.90;;;;;;6279693;22;19999;-70
2022/09/18 21:19:03;;;;;;;2.20;0.93;;;17.70;67.90;;;;;;6298580;22;20011;-73
2022/09/18 21:21:35;;;;;;;1.15;0.80;;;17.60;67.80;;;;;;6303696;22;20436;-67
2022/09/18 21:24:03;;;;;;;2.85;0.45;;;17.70;67.70;;;;;;6304104;22;20303;-69
2022/09/18 21:26:32;;;;;;;3.45;0.80;;;17.60;67.70;;;;;;6303646;22;19996;-67
2022/09/18 21:29:01;;;;;;;3.08;0.70;;;17.60;67.70;;;;;;6303570;22;20078;-70
2022/09/18 21:31:28;;;;;;;1.35;0.60;;;17.60;67.50;;;;;;6276707;22;19999;-67
2022/09/18 21:33:58;;;;;;;1.52;0.45;;;17.60;67.50;;;;;;6274572;22;20452;-68
2022/09/18 21:36:26;;;;;;;1.75;0.50;;;17.60;67.30;;;;;;6303801;22;20027;-66
2022/09/18 21:38:54;;;;;;;1.63;0.85;;;17.60;66.90;;;;;;6303356;22;19996;-67
2022/09/18 21:41:21;;;;;;;1.33;0.45;;;17.60;66.70;;;;;;6304354;22;20499;-69
2022/09/18 21:43:49;;;;;;;1.05;0.55;;;17.60;66.70;;;;;;6302507;22;20418;-67
2022/09/18 21:46:18;;;;;;;4.38;0.93;;;17.60;66.60;;;;;;6302987;22;20033;-69
2022/09/18 21:48:47;;;;;;;0.93;0.50;;;17.50;66.60;;;;;;6304103;22;20156;-66
2022/09/18 21:51:17;;;;;;;1.52;0.80;;;17.50;66.70;;;;;;6302335;22;20002;-66
2022/09/18 21:53:44;;;;;;;4.45;0.73;;;17.50;66.80;;;;;;6303822;22;20006;-66
2022/09/18 21:56:15;;;;;;;14.27;1.63;;;17.50;66.80;;;;;;6302875;22;19999;-67
2022/09/18 21:58:44;;;;;;;4.35;2.42;;;17.50;68.00;;;;;;6304209;22;20045;-72
2022/09/18 22:01:29;;;;;;;3.67;0.55;;;17.50;68.00;;;;;;6302795;22;20360;-68
2022/09/18 22:03:58;;;;;;;6.38;0.98;;;17.50;68.00;;;;;;6303205;22;20010;-67
2022/09/18 22:06:27;;;;;;;3.55;1.15;;;17.50;68.90;;;;;;6303993;22;20448;-66
2022/09/18 22:08:55;;;;;;;4.40;0.80;;;17.50;69.10;;;;;;6303332;22;20034;-67
2022/09/18 22:11:25;;;;;;;9.57;1.90;;;17.50;69.50;;;;;;6303798;22;20322;-67
2022/09/18 22:13:54;;;;;;;5.68;1.50;;;17.50;70.30;;;;;;6303313;22;20090;-67
2022/09/18 22:16:22;;;;;;;6.82;1.27;;;17.50;69.00;;;;;;6303009;22;19999;-68
2022/09/18 22:18:48;;;;;;;3.80;1.10;;;17.50;69.80;;;;;;6303309;22;20015;-72
2022/09/18 22:21:24;;;;;;;2.20;0.70;;;17.50;70.30;;;;;;6302736;22;20027;-74
2022/09/18 22:23:53;;;;;;;8.40;1.10;;;17.50;70.50;;;;;;6303712;22;20083;-68
2022/09/18 22:26:22;;;;;;;4.90;1.10;;;17.40;70.10;;;;;;6301898;22;20415;-74
2022/09/18 22:28:55;;;;;;;4.82;0.82;;;17.50;70.40;;;;;;6301503;22;20019;-68
2022/09/18 22:31:23;;;;;;;35.67;1.88;;;17.50;70.50;;;;;;6301666;22;20326;-74